createdAt,value
2022-10-10T00:00:29.264Z,100915.13
2022-10-10T00:02:30.926Z,100912.47
2022-10-10T00:04:32.575Z,100913.41
2022-10-10T00:06:34.735Z,100916.03
2022-10-10T00:08:36.593Z,100910.88
2022-10-10T00:10:38.267Z,100908.28
2022-10-10T00:12:39.966Z,100904.00
2022-10-10T00:14:41.635Z,100904.91
2022-10-10T00:16:43.389Z,100913.53
2022-10-10T00:18:45.345Z,100897.19
2022-10-10T00:20:47.049Z,100898.06
2022-10-10T00:22:49.098Z,100912.78
2022-10-10T00:24:50.968Z,100902.38
2022-10-10T00:26:52.675Z,100903.25
2022-10-10T00:28:54.357Z,100904.16
2022-10-10T00:30:56.079Z,100903.31
2022-10-10T00:33:01.311Z,100900.75
2022-10-10T00:35:04.339Z,100905.97
2022-10-10T00:37:06.406Z,100901.66
2022-10-10T00:39:08.114Z,100899.00
2022-10-10T00:41:09.907Z,100898.16
2022-10-10T00:43:13.746Z,100890.44
2022-10-10T00:45:35.572Z,100887.94
2022-10-10T00:47:37.340Z,100888.72
2022-10-10T00:49:44.199Z,100888.81
2022-10-10T00:51:48.831Z,100882.78
2022-10-10T00:53:55.551Z,100887.97
2022-10-10T00:55:57.489Z,100894.00
2022-10-10T00:57:59.275Z,100897.47
2022-10-10T01:00:01.171Z,100900.91
2022-10-10T01:02:03.092Z,100898.41
2022-10-10T01:04:05.596Z,100900.06
2022-10-10T01:06:07.510Z,100901.00
2022-10-10T01:08:10.295Z,100900.13
2022-10-10T01:10:17.750Z,100903.59
2022-10-10T01:12:51.775Z,100907.91
2022-10-10T01:15:09.305Z,100901.88
2022-10-10T01:17:54.415Z,100907.03
2022-10-10T01:20:02.010Z,100898.41
2022-10-10T01:22:38.803Z,100901.84
2022-10-10T01:24:56.669Z,100907.91
2022-10-10T01:27:18.667Z,100908.75
2022-10-10T01:29:56.890Z,100902.69
2022-10-10T01:32:16.286Z,100907.88
2022-10-10T01:34:36.447Z,100905.25
2022-10-10T01:36:43.810Z,100906.13
2022-10-10T01:39:00.317Z,100905.28
2022-10-10T01:41:14.783Z,100907.00
2022-10-10T01:43:17.783Z,100904.38
2022-10-10T01:45:19.680Z,100900.97
2022-10-10T01:47:22.485Z,100904.44
2022-10-10T01:49:28.572Z,100908.75
2022-10-10T01:51:36.113Z,100905.22
2022-10-10T01:53:48.751Z,100905.25
2022-10-10T01:56:02.819Z,100908.69
2022-10-10T01:58:16.093Z,100908.69
2022-10-10T02:00:19.279Z,100905.25
2022-10-10T02:02:28.084Z,100905.25
2022-10-10T02:04:44.587Z,100911.28
2022-10-10T02:06:53.541Z,100907.81
2022-10-10T02:09:00.228Z,100900.03
2022-10-10T02:11:08.450Z,100893.06
2022-10-10T02:13:11.899Z,100901.72
2022-10-10T02:15:21.693Z,100905.97
2022-10-10T02:17:26.196Z,100905.97
2022-10-10T02:19:30.069Z,100904.25
2022-10-10T02:21:32.549Z,100902.53
2022-10-10T02:23:35.643Z,100903.38
2022-10-10T02:25:40.160Z,100899.06
2022-10-10T02:27:59.636Z,100909.41
2022-10-10T02:30:04.178Z,100902.50
2022-10-10T02:32:22.053Z,100905.97
2022-10-10T02:34:29.418Z,100902.50
2022-10-10T02:36:31.952Z,100901.66
2022-10-10T02:38:33.671Z,100893.88
2022-10-10T02:40:36.355Z,100899.06
2022-10-10T02:42:39.845Z,100903.38
2022-10-10T02:44:42.335Z,100899.09
2022-10-10T02:46:44.037Z,100899.09
2022-10-10T02:48:45.936Z,100897.34
2022-10-10T02:50:48.049Z,100896.47
2022-10-10T02:52:49.979Z,100902.53
2022-10-10T02:54:51.821Z,100900.78
2022-10-10T02:56:53.962Z,100899.09
2022-10-10T02:58:55.676Z,100893.06
2022-10-10T03:00:57.489Z,100893.91
2022-10-10T03:02:59.211Z,100886.13
2022-10-10T03:05:00.845Z,100887.00
2022-10-10T03:07:11.075Z,100883.53
2022-10-10T03:09:12.745Z,100892.19
2022-10-10T03:11:14.390Z,100896.53
2022-10-10T03:13:16.031Z,100881.81
2022-10-10T03:15:17.750Z,100892.22
2022-10-10T03:17:19.432Z,100896.50
2022-10-10T03:19:21.167Z,100889.59
2022-10-10T03:21:22.800Z,100886.13
2022-10-10T03:23:25.369Z,100890.50
2022-10-10T03:25:26.994Z,100892.22
2022-10-10T03:27:30.990Z,100887.00
2022-10-10T03:29:32.806Z,100893.94
2022-10-10T03:31:34.426Z,100893.94
2022-10-10T03:33:36.168Z,100893.03
2022-10-10T03:35:38.190Z,100900.78
2022-10-10T03:37:39.831Z,100896.47
2022-10-10T03:39:41.468Z,100899.91
2022-10-10T03:41:43.139Z,100901.66
2022-10-10T03:43:44.855Z,100898.22
2022-10-10T03:45:47.743Z,100896.47
2022-10-10T03:47:49.465Z,100893.94
2022-10-10T03:49:51.073Z,100900.03
2022-10-10T03:51:53.770Z,100903.50
2022-10-10T03:53:55.673Z,100898.31
2022-10-10T03:55:57.374Z,100902.66
2022-10-10T03:57:59.094Z,100904.44
2022-10-10T04:00:00.747Z,100901.84
2022-10-10T04:02:02.389Z,100907.00
2022-10-10T04:04:05.128Z,100902.72
2022-10-10T04:06:07.498Z,100911.34
2022-10-10T04:08:09.951Z,100903.56
2022-10-10T04:10:11.739Z,100914.81
2022-10-10T04:12:13.385Z,100912.22
2022-10-10T04:14:15.034Z,100912.22
2022-10-10T04:16:16.672Z,100909.63
2022-10-10T04:18:19.032Z,100906.22
2022-10-10T04:20:20.704Z,100913.09
2022-10-10T04:22:22.463Z,100920.00
2022-10-10T04:24:24.060Z,100931.25
2022-10-10T04:26:25.741Z,100932.13
2022-10-10T04:28:27.496Z,100926.09
2022-10-10T04:30:34.486Z,100932.94
2022-10-10T04:32:36.746Z,100937.31
2022-10-10T04:34:38.425Z,100941.63
2022-10-10T04:36:40.007Z,100947.66
2022-10-10T04:38:41.666Z,100939.91
2022-10-10T04:40:43.329Z,100941.63
2022-10-10T04:42:44.968Z,100939.00
2022-10-10T04:44:46.630Z,100947.63
2022-10-10T04:46:48.329Z,100938.97
2022-10-10T04:48:50.194Z,100941.56
2022-10-10T04:50:53.510Z,100946.75
2022-10-10T04:52:55.277Z,100947.59
2022-10-10T04:54:56.973Z,100951.94
2022-10-10T04:56:58.606Z,100954.53
2022-10-10T04:59:00.348Z,100955.38
2022-10-10T05:01:02.207Z,100964.00
2022-10-10T05:03:03.992Z,100967.47
2022-10-10T05:05:06.288Z,100958.84
2022-10-10T05:07:13.287Z,100961.41
2022-10-10T05:09:14.965Z,100951.91
2022-10-10T05:11:16.685Z,100953.63
2022-10-10T05:13:18.365Z,100949.31
2022-10-10T05:15:21.538Z,100964.84
2022-10-10T05:17:23.201Z,100966.59
2022-10-10T05:19:25.012Z,100973.50
2022-10-10T05:21:26.736Z,100973.50
2022-10-10T05:23:28.472Z,100984.72
2022-10-10T05:25:30.233Z,100983.00
2022-10-10T05:27:31.881Z,100988.19
2022-10-10T05:29:33.514Z,100985.53
2022-10-10T05:31:35.186Z,100995.88
2022-10-10T05:33:36.831Z,100994.16
2022-10-10T05:35:38.493Z,100996.72
2022-10-10T05:37:40.195Z,100992.34
2022-10-10T05:39:41.984Z,101001.00
2022-10-10T05:41:43.629Z,101002.75
2022-10-10T05:43:45.323Z,101010.50
2022-10-10T05:45:46.980Z,101018.28
2022-10-10T05:47:48.623Z,101023.34
2022-10-10T05:49:50.262Z,101025.06
2022-10-10T05:51:51.960Z,101038.88
2022-10-10T05:53:53.666Z,101032.94
2022-10-10T05:55:55.428Z,101025.16
2022-10-10T05:57:57.115Z,101034.56
2022-10-10T05:59:58.750Z,101036.28
2022-10-10T06:02:00.446Z,101039.66
2022-10-10T06:04:02.294Z,101049.13
2022-10-10T06:06:04.571Z,101057.75
2022-10-10T06:08:11.600Z,101052.59
2022-10-10T06:10:13.997Z,101065.53
2022-10-10T06:12:15.619Z,101070.72
2022-10-10T06:14:17.307Z,101068.13
2022-10-10T06:16:19.028Z,101074.16
2022-10-10T06:18:20.740Z,101086.22
2022-10-10T06:20:22.656Z,101090.50
2022-10-10T06:22:24.512Z,101085.34
2022-10-10T06:24:26.250Z,101096.47
2022-10-10T06:26:27.972Z,101107.69
2022-10-10T06:28:29.657Z,101118.88
2022-10-10T06:30:31.488Z,101117.16
2022-10-10T06:32:33.261Z,101128.34
2022-10-10T06:34:34.897Z,101128.28
2022-10-10T06:36:36.521Z,101134.19
2022-10-10T06:38:43.346Z,101139.47
2022-10-10T06:40:46.047Z,101143.75
2022-10-10T06:42:47.671Z,101151.44
2022-10-10T06:44:49.413Z,101153.16
2022-10-10T06:46:51.119Z,101164.34
2022-10-10T06:48:52.784Z,101165.91
2022-10-10T06:51:06.550Z,101184.28
2022-10-10T06:53:08.237Z,101196.66
2022-10-10T06:55:09.999Z,101201.63
2022-10-10T06:57:13.199Z,101206.78
2022-10-10T06:59:15.048Z,101215.31
2022-10-10T07:01:18.729Z,101230.63
2022-10-10T07:03:21.735Z,101236.75
2022-10-10T07:05:23.433Z,101246.16
2022-10-10T07:07:25.078Z,101249.53
2022-10-10T07:09:26.712Z,101253.03
2022-10-10T07:11:29.043Z,101258.88
2022-10-10T07:13:31.260Z,101263.94
2022-10-10T07:15:32.948Z,101266.44
2022-10-10T07:17:34.779Z,101263.78
2022-10-10T07:19:37.836Z,101290.53
2022-10-10T07:21:39.644Z,101294.81
2022-10-10T07:23:41.331Z,101307.69
2022-10-10T07:25:43.858Z,101310.06
2022-10-10T07:27:45.621Z,101312.69
2022-10-10T07:29:47.248Z,101312.53
2022-10-10T07:31:48.882Z,101322.81
2022-10-10T07:33:51.084Z,101321.81
2022-10-10T07:35:54.811Z,101333.09
2022-10-10T07:37:56.634Z,101340.78
2022-10-10T07:39:58.366Z,101352.81
2022-10-10T07:41:59.982Z,101361.34
2022-10-10T07:44:01.905Z,101362.13
2022-10-10T07:46:08.199Z,101374.22
2022-10-10T07:48:13.086Z,101375.88
2022-10-10T07:50:14.747Z,101381.06
2022-10-10T07:52:16.402Z,101373.16
2022-10-10T07:54:18.288Z,101379.84
2022-10-10T07:56:19.933Z,101381.75
2022-10-10T07:58:21.540Z,101383.41
2022-10-10T08:00:23.302Z,101386.78
2022-10-10T08:02:25.069Z,101389.44
2022-10-10T08:04:26.970Z,101401.38
2022-10-10T08:06:28.828Z,101399.81
2022-10-10T08:08:33.954Z,101393.69
2022-10-10T08:10:36.438Z,101399.69
2022-10-10T08:12:38.279Z,101404.06
2022-10-10T08:14:55.759Z,101406.59
2022-10-10T08:16:58.799Z,101404.91
2022-10-10T08:19:00.634Z,101421.28
2022-10-10T08:21:07.836Z,101418.69
2022-10-10T08:23:09.503Z,101414.34
2022-10-10T08:25:14.705Z,101426.25
2022-10-10T08:27:20.990Z,101434.94
2022-10-10T08:29:22.693Z,101443.47
2022-10-10T08:31:24.469Z,101446.91
2022-10-10T08:33:27.951Z,101455.59
2022-10-10T08:35:29.754Z,101457.44
2022-10-10T08:37:35.208Z,101464.28
2022-10-10T08:39:39.034Z,101464.16
2022-10-10T08:41:52.347Z,101468.41
2022-10-10T08:44:30.257Z,101465.13
2022-10-10T08:46:48.236Z,101467.78
2022-10-10T08:48:52.005Z,101467.72
2022-10-10T08:50:59.559Z,101470.28
2022-10-10T08:53:06.533Z,101475.53
2022-10-10T08:55:16.441Z,101486.06
2022-10-10T08:57:34.026Z,101489.56
2022-10-10T08:59:39.810Z,101487.16
2022-10-10T09:02:20.060Z,101501.88
2022-10-10T09:04:06.557Z,101502.97
2022-10-10T09:06:23.426Z,101512.44
2022-10-10T09:08:41.730Z,101505.66
2022-10-10T09:10:45.965Z,101504.94
2022-10-10T09:12:47.539Z,101506.72
2022-10-10T09:14:53.097Z,101502.41
2022-10-10T09:17:22.431Z,101509.34
2022-10-10T09:19:33.066Z,101512.19
2022-10-10T09:21:39.623Z,101515.72
2022-10-10T09:23:50.079Z,101523.56
2022-10-10T09:25:58.842Z,101534.06
2022-10-10T09:28:11.507Z,101533.34
2022-10-10T09:30:19.915Z,101537.78
2022-10-10T09:32:25.921Z,101532.69
2022-10-10T09:34:49.551Z,101535.38
2022-10-10T09:36:54.174Z,101549.13
2022-10-10T09:39:02.792Z,101543.16
2022-10-10T09:41:29.888Z,101550.78
2022-10-10T09:43:36.312Z,101546.47
2022-10-10T09:45:45.154Z,101544.91
2022-10-10T09:47:51.341Z,101549.41
2022-10-10T09:49:53.119Z,101556.34
2022-10-10T09:51:55.018Z,101561.59
2022-10-10T09:53:56.799Z,101560.06
2022-10-10T09:55:59.728Z,101565.38
2022-10-10T09:58:12.039Z,101566.34
2022-10-10T10:00:19.842Z,101563.94
2022-10-10T10:02:24.942Z,101562.50
2022-10-10T10:04:32.831Z,101569.44
2022-10-10T10:06:34.610Z,101569.59
2022-10-10T10:08:37.121Z,101569.69
2022-10-10T10:10:39.010Z,101569.03
2022-10-10T10:12:43.041Z,101571.75
2022-10-10T10:14:44.812Z,101581.28
2022-10-10T10:16:46.496Z,101577.97
2022-10-10T10:18:48.254Z,101583.41
2022-10-10T10:20:52.436Z,101585.31
2022-10-10T10:22:54.221Z,101583.69
2022-10-10T10:24:56.084Z,101593.34
2022-10-10T10:27:20.570Z,101597.03
2022-10-10T10:29:31.775Z,101594.56
2022-10-10T10:31:58.071Z,101605.88
2022-10-10T10:34:17.401Z,101606.16
2022-10-10T10:36:49.144Z,101604.63
2022-10-10T10:39:06.825Z,101603.75
2022-10-10T10:41:44.206Z,101603.91
2022-10-10T10:43:52.098Z,101604.03
2022-10-10T10:46:03.015Z,101613.66
2022-10-10T10:48:28.448Z,101616.31
2022-10-10T10:50:37.750Z,101618.28
2022-10-10T10:53:10.385Z,101624.47
2022-10-10T10:55:39.395Z,101624.56
2022-10-10T10:58:37.271Z,101636.81
2022-10-10T11:01:19.935Z,101640.34
2022-10-10T11:03:02.534Z,101644.00
2022-10-10T11:05:42.438Z,101647.66
2022-10-10T11:07:54.025Z,101646.78
2022-10-10T11:10:01.552Z,101649.41
2022-10-10T11:12:22.229Z,101652.94
2022-10-10T11:14:47.544Z,101652.13
2022-10-10T11:16:53.952Z,101652.19
2022-10-10T11:19:16.375Z,101657.47
2022-10-10T11:21:23.529Z,101659.31
2022-10-10T11:23:47.553Z,101659.38
2022-10-10T11:26:08.863Z,101662.97
2022-10-10T11:28:20.552Z,101659.56
2022-10-10T11:30:25.197Z,101666.59
2022-10-10T11:32:43.059Z,101665.78
2022-10-10T11:35:07.655Z,101662.34
2022-10-10T11:37:25.678Z,101668.44
2022-10-10T11:39:38.476Z,101658.09
2022-10-10T11:41:43.094Z,101672.84
2022-10-10T11:44:28.764Z,101658.97
2022-10-10T11:46:44.312Z,101675.50
2022-10-10T11:48:58.052Z,101673.75
2022-10-10T11:51:16.127Z,101675.56
2022-10-10T11:53:26.438Z,101680.88
2022-10-10T11:55:43.438Z,101688.69
2022-10-10T11:58:20.466Z,101681.78
2022-10-10T12:00:22.657Z,101684.44
2022-10-10T12:02:33.261Z,101687.94
2022-10-10T12:04:36.210Z,101681.84
2022-10-10T12:07:04.285Z,101686.19
2022-10-10T12:09:13.511Z,101694.06
2022-10-10T12:11:47.778Z,101691.44
2022-10-10T12:13:56.759Z,101706.22
2022-10-10T12:16:10.231Z,101698.41
2022-10-10T12:18:38.550Z,101701.03
2022-10-10T12:20:44.834Z,101699.31
2022-10-10T12:23:06.205Z,101703.63
2022-10-10T12:25:10.860Z,101696.66
2022-10-10T12:27:47.448Z,101704.50
2022-10-10T12:29:54.956Z,101706.25
2022-10-10T12:32:14.937Z,101719.28
2022-10-10T12:34:41.227Z,101709.72
2022-10-10T12:36:57.069Z,101703.72
2022-10-10T12:39:06.652Z,101696.75
2022-10-10T12:41:18.808Z,101697.59
2022-10-10T12:43:22.380Z,101712.38
2022-10-10T12:45:33.010Z,101708.03
2022-10-10T12:48:05.384Z,101701.94
2022-10-10T12:50:32.836Z,101715.88
2022-10-10T12:52:53.751Z,101718.50
2022-10-10T12:55:07.443Z,101721.94
2022-10-10T12:57:17.842Z,101727.19
2022-10-10T12:59:25.265Z,101719.34
2022-10-10T13:01:33.552Z,101730.66
2022-10-10T13:03:42.211Z,101735.00
2022-10-10T13:05:45.807Z,101729.78
2022-10-10T13:07:49.680Z,101732.38
2022-10-10T13:09:53.732Z,101730.66
2022-10-10T13:11:59.868Z,101735.84
2022-10-10T13:14:08.926Z,101734.13
2022-10-10T13:16:15.693Z,101738.50
2022-10-10T13:18:35.294Z,101742.84
2022-10-10T13:20:40.230Z,101741.94
2022-10-10T13:22:45.219Z,101743.66
2022-10-10T13:24:50.768Z,101748.03
2022-10-10T13:26:53.573Z,101755.91
2022-10-10T13:28:57.868Z,101764.59
2022-10-10T13:31:00.568Z,101759.34
2022-10-10T13:33:12.326Z,101755.84
2022-10-10T13:35:21.901Z,101757.59
2022-10-10T13:37:28.075Z,101766.28
2022-10-10T13:39:32.351Z,101757.63
2022-10-10T13:41:39.015Z,101759.34
2022-10-10T13:43:45.671Z,101766.31
2022-10-10T13:46:00.204Z,101773.28
2022-10-10T13:48:41.904Z,101769.81
2022-10-10T13:50:53.385Z,101769.78
2022-10-10T13:53:30.229Z,101773.31
2022-10-10T13:55:37.980Z,101770.69
2022-10-10T13:57:41.468Z,101781.13
2022-10-10T13:59:44.972Z,101788.13
2022-10-10T14:01:49.454Z,101788.97
2022-10-10T14:03:52.672Z,101795.06
2022-10-10T14:05:54.551Z,101801.16
2022-10-10T14:07:58.175Z,101786.31
2022-10-10T14:10:06.126Z,101792.38
2022-10-10T14:12:24.386Z,101793.22
2022-10-10T14:14:43.285Z,101793.22
2022-10-10T14:16:44.942Z,101804.50
2022-10-10T14:18:46.745Z,101807.13
2022-10-10T14:20:56.566Z,101811.50
2022-10-10T14:23:01.530Z,101811.50
2022-10-10T14:25:03.372Z,101813.25
2022-10-10T14:27:36.881Z,101813.16
2022-10-10T14:29:43.322Z,101815.78
2022-10-10T14:31:46.744Z,101823.66
2022-10-10T14:33:48.422Z,101818.44
2022-10-10T14:35:53.936Z,101826.34
2022-10-10T14:38:01.722Z,101825.44
2022-10-10T14:40:04.325Z,101828.06
2022-10-10T14:42:11.956Z,101828.91
2022-10-10T14:44:16.107Z,101833.28
2022-10-10T14:46:23.590Z,101828.91
2022-10-10T14:48:25.435Z,101834.13
2022-10-10T14:50:44.233Z,101836.72
2022-10-10T14:52:46.040Z,101846.28
2022-10-10T14:54:47.688Z,101844.56
2022-10-10T14:57:09.043Z,101838.44
2022-10-10T14:59:18.268Z,101845.34
2022-10-10T15:01:39.929Z,101848.78
2022-10-10T15:03:41.577Z,101850.56
2022-10-10T15:05:43.428Z,101848.81
2022-10-10T15:07:45.596Z,101847.91
2022-10-10T15:12:11.785Z,101853.22
2022-10-10T15:14:13.460Z,101861.00
2022-10-10T15:16:16.449Z,101861.06
2022-10-10T15:18:49.186Z,101872.44
2022-10-10T15:20:41.038Z,101862.84
2022-10-10T15:22:43.109Z,101881.19
2022-10-10T15:24:47.705Z,101875.97
2022-10-10T15:26:49.437Z,101885.63
2022-10-10T15:28:55.309Z,101884.78
2022-10-10T15:30:57.117Z,101889.13
2022-10-10T15:32:58.764Z,101893.50
2022-10-10T15:35:00.708Z,101901.34
2022-10-10T15:37:03.059Z,101900.47
2022-10-10T15:39:06.561Z,101909.19
2022-10-10T15:41:10.192Z,101906.56
2022-10-10T15:43:11.906Z,101919.63
2022-10-10T15:45:19.375Z,101913.50
2022-10-10T15:47:33.286Z,101913.50
2022-10-10T15:49:35.335Z,101918.72
2022-10-10T15:51:37.250Z,101921.31
2022-10-10T15:53:39.174Z,101917.81
2022-10-10T15:55:45.679Z,101923.81
2022-10-10T15:57:47.313Z,101930.78
2022-10-10T15:59:49.609Z,101932.41
2022-10-10T16:01:51.249Z,101939.28
2022-10-10T16:03:53.205Z,101939.19
2022-10-10T16:05:54.906Z,101938.19
2022-10-10T16:07:56.531Z,101942.47
2022-10-10T16:09:59.109Z,101946.78
2022-10-10T16:12:01.685Z,101945.00
2022-10-10T16:14:03.525Z,101950.06
2022-10-10T16:16:08.060Z,101950.88
2022-10-10T16:18:09.736Z,101950.88
2022-10-10T16:20:11.797Z,101961.22
2022-10-10T16:22:13.462Z,101960.25
2022-10-10T16:24:15.266Z,101963.63
2022-10-10T16:26:20.073Z,101967.16
2022-10-10T16:28:21.795Z,101971.38
2022-10-10T16:30:23.451Z,101967.81
2022-10-10T16:32:25.108Z,101967.84
2022-10-10T16:34:26.792Z,101973.81
2022-10-10T16:36:33.328Z,101982.50
2022-10-10T16:38:36.206Z,101984.94
2022-10-10T16:40:38.166Z,101987.53
2022-10-10T16:42:39.771Z,101993.59
2022-10-10T16:44:41.493Z,101995.25
2022-10-10T16:46:43.236Z,101996.06
2022-10-10T16:48:45.687Z,101995.06
2022-10-10T16:50:47.353Z,101997.75
2022-10-10T16:52:49.020Z,102014.97
2022-10-10T16:54:52.384Z,102009.69
2022-10-10T16:56:54.220Z,102025.25
2022-10-10T16:58:57.635Z,102013.88
2022-10-10T17:01:03.617Z,102019.91
2022-10-10T17:03:07.545Z,102019.88
2022-10-10T17:05:09.696Z,102023.19
2022-10-10T17:07:18.421Z,102025.75
2022-10-10T17:09:20.111Z,102031.72
2022-10-10T17:11:22.740Z,102037.75
2022-10-10T17:13:24.627Z,102037.66
2022-10-10T17:15:26.633Z,102054.00
2022-10-10T17:17:28.282Z,102058.34
2022-10-10T17:19:29.955Z,102055.69
2022-10-10T17:21:31.821Z,102050.44
2022-10-10T17:23:33.527Z,102052.97
2022-10-10T17:25:35.174Z,102056.41
2022-10-10T17:27:38.945Z,102065.94
2022-10-10T17:29:40.717Z,102066.63
2022-10-10T17:31:42.948Z,102068.25
2022-10-10T17:33:51.002Z,102074.28
2022-10-10T17:35:55.152Z,102079.31
2022-10-10T17:37:56.883Z,102075.78
2022-10-10T17:39:58.631Z,102074.03
2022-10-10T17:42:00.614Z,102082.59
2022-10-10T17:44:02.453Z,102082.50
2022-10-10T17:46:33.073Z,102086.78
2022-10-10T17:48:36.811Z,102093.63
2022-10-10T17:50:38.485Z,102104.78
2022-10-10T17:52:40.257Z,102105.59
2022-10-10T17:54:41.977Z,102114.94
2022-10-10T17:56:44.752Z,102108.84
2022-10-10T17:58:47.307Z,102115.75
2022-10-10T18:00:49.196Z,102120.06
2022-10-10T18:02:50.853Z,102122.53
2022-10-10T18:04:52.582Z,102129.41
2022-10-10T18:06:54.240Z,102137.16
2022-10-10T18:08:57.153Z,102134.56
2022-10-10T18:10:59.101Z,102139.66
2022-10-10T18:13:01.823Z,102143.91
2022-10-10T18:15:04.250Z,102143.00
2022-10-10T18:17:10.645Z,102143.88
2022-10-10T18:19:12.295Z,102142.03
2022-10-10T18:21:14.647Z,102142.75
2022-10-10T18:23:16.416Z,102150.53
2022-10-10T18:25:21.627Z,102152.13
2022-10-10T18:27:26.928Z,102151.25
2022-10-10T18:29:28.572Z,102165.06
2022-10-10T18:31:33.436Z,102158.88
2022-10-10T18:33:35.189Z,102164.94
2022-10-10T18:35:41.323Z,102162.31
2022-10-10T18:37:43.360Z,102170.91
2022-10-10T18:39:45.023Z,102174.38
2022-10-10T18:41:47.337Z,102181.25
2022-10-10T18:43:50.687Z,102182.94
2022-10-10T18:45:53.955Z,102176.84
2022-10-10T18:47:55.724Z,102175.84
2022-10-10T18:49:57.502Z,102179.28
2022-10-10T18:51:59.239Z,102186.25
2022-10-10T18:54:08.262Z,102190.56
2022-10-10T18:56:12.921Z,102194.78
2022-10-10T18:58:14.620Z,102199.03
2022-10-10T19:00:16.658Z,102193.88
2022-10-10T19:02:18.329Z,102203.25
2022-10-10T19:04:20.875Z,102202.38
2022-10-10T19:06:24.518Z,102208.44
2022-10-10T19:08:26.208Z,102210.91
2022-10-10T19:10:27.838Z,102213.41
2022-10-10T19:12:29.465Z,102225.47
2022-10-10T19:14:31.115Z,102221.94
2022-10-10T19:16:33.682Z,102227.16
2022-10-10T19:18:35.329Z,102220.88
2022-10-10T19:20:39.167Z,102223.50
2022-10-10T19:22:40.837Z,102219.94
2022-10-10T19:24:42.624Z,102230.22
2022-10-10T19:26:44.846Z,102232.66
2022-10-10T19:28:46.981Z,102240.31
2022-10-10T19:30:48.702Z,102242.84
2022-10-10T19:32:50.458Z,102253.16
2022-10-10T19:34:53.297Z,102245.25
2022-10-10T19:36:54.933Z,102247.78
2022-10-10T19:38:58.931Z,102249.25
2022-10-10T19:41:01.146Z,102255.44
2022-10-10T19:43:03.194Z,102257.78
2022-10-10T19:45:05.132Z,102258.59
2022-10-10T19:47:23.223Z,102273.25
2022-10-10T19:49:24.919Z,102268.81
2022-10-10T19:51:29.291Z,102280.75
2022-10-10T19:53:33.444Z,102284.16
2022-10-10T19:55:35.135Z,102284.16
2022-10-10T19:57:37.365Z,102293.63
2022-10-10T19:59:39.164Z,102292.69
2022-10-10T20:01:40.926Z,102291.81
2022-10-10T20:03:43.960Z,102287.44
2022-10-10T20:05:45.603Z,102296.84
2022-10-10T20:07:49.875Z,102296.78
2022-10-10T20:09:51.632Z,102306.19
2022-10-10T20:11:53.292Z,102305.31
2022-10-10T20:13:55.968Z,102301.72
2022-10-10T20:16:03.809Z,102300.66
2022-10-10T20:18:05.737Z,102300.50
2022-10-10T20:20:08.012Z,102301.28
2022-10-10T20:22:09.788Z,102302.16
2022-10-10T20:24:11.851Z,102303.91
2022-10-10T20:26:17.418Z,102303.78
2022-10-10T20:28:20.820Z,102302.00
2022-10-10T20:30:22.853Z,102310.56
2022-10-10T20:32:24.610Z,102314.72
2022-10-10T20:34:26.317Z,102316.31
2022-10-10T20:36:30.189Z,102320.75
2022-10-10T20:38:31.877Z,102326.63
2022-10-10T20:40:37.739Z,102320.75
2022-10-10T20:42:40.210Z,102326.59
2022-10-10T20:44:42.547Z,102337.81
2022-10-10T20:46:46.352Z,102337.66
2022-10-10T20:48:48.453Z,102340.94
2022-10-10T20:50:50.127Z,102335.75
2022-10-10T20:52:51.807Z,102335.69
2022-10-10T20:54:53.511Z,102345.09
2022-10-10T20:56:55.145Z,102343.41
2022-10-10T20:58:56.896Z,102338.94
2022-10-10T21:01:07.164Z,102348.41
2022-10-10T21:03:08.814Z,102347.16
2022-10-10T21:05:10.509Z,102346.28
2022-10-10T21:07:20.242Z,102345.41
2022-10-10T21:09:21.944Z,102354.78
2022-10-10T21:11:23.963Z,102346.97
2022-10-10T21:13:25.739Z,102346.94
2022-10-10T21:15:27.458Z,102348.59
2022-10-10T21:17:29.530Z,102345.09
2022-10-10T21:19:31.636Z,102351.97
2022-10-10T21:21:35.213Z,102351.72
2022-10-10T21:23:39.336Z,102349.31
2022-10-10T21:25:41.824Z,102347.44
2022-10-10T21:27:43.442Z,102351.00
2022-10-10T21:29:45.157Z,102356.13
2022-10-10T21:31:47.203Z,102358.53
2022-10-10T21:33:49.023Z,102361.03
2022-10-10T21:35:52.673Z,102361.75
2022-10-10T21:37:54.345Z,102364.22
2022-10-10T21:39:55.993Z,102367.69
2022-10-10T21:41:57.634Z,102365.81
2022-10-10T21:43:59.836Z,102372.72
2022-10-10T21:46:12.035Z,102375.41
2022-10-10T21:48:14.239Z,102381.28
2022-10-10T21:50:16.003Z,102377.88
2022-10-10T21:52:17.626Z,102381.25
2022-10-10T21:54:19.294Z,102380.28
2022-10-10T21:56:20.934Z,102382.78
2022-10-10T21:58:26.377Z,102388.72
2022-10-10T22:00:28.135Z,102385.31
2022-10-10T22:02:29.835Z,102375.78
2022-10-10T22:04:31.473Z,102384.09
2022-10-10T22:06:33.136Z,102388.50
2022-10-10T22:08:35.503Z,102397.94
2022-10-10T22:10:40.866Z,102393.47
2022-10-10T22:12:42.799Z,102399.50
2022-10-10T22:14:44.435Z,102399.41
2022-10-10T22:16:46.366Z,102394.94
2022-10-10T22:18:52.264Z,102398.28
2022-10-10T22:20:53.974Z,102392.19
2022-10-10T22:22:55.649Z,102395.66
2022-10-10T22:24:57.629Z,102406.88
2022-10-10T22:26:59.544Z,102412.81
2022-10-10T22:29:01.234Z,102416.09
2022-10-10T22:31:05.380Z,102407.47
2022-10-10T22:33:07.383Z,102409.16
2022-10-10T22:35:09.192Z,102403.94
2022-10-10T22:37:18.238Z,102411.53
2022-10-10T22:39:20.196Z,102409.59
2022-10-10T22:41:22.224Z,102419.00
2022-10-10T22:43:26.930Z,102409.44
2022-10-10T22:45:29.465Z,102413.78
2022-10-10T22:47:31.243Z,102418.75
2022-10-10T22:49:35.002Z,102419.75
2022-10-10T22:51:36.632Z,102420.38
2022-10-10T22:53:42.678Z,102413.34
2022-10-10T22:55:44.313Z,102414.44
2022-10-10T22:57:46.235Z,102417.81
2022-10-10T22:59:48.488Z,102421.16
2022-10-10T23:01:51.694Z,102428.91
2022-10-10T23:03:55.533Z,102427.22
2022-10-10T23:05:57.259Z,102424.56
2022-10-10T23:07:58.859Z,102423.53
2022-10-10T23:10:00.602Z,102434.59
2022-10-10T23:12:02.262Z,102433.72
2022-10-10T23:14:04.318Z,102445.81
2022-10-10T23:16:06.726Z,102434.66
2022-10-10T23:18:08.680Z,102433.72
2022-10-10T23:20:10.530Z,102431.91
2022-10-10T23:22:13.026Z,102433.72
2022-10-10T23:24:14.777Z,102435.47
2022-10-10T23:26:16.564Z,102444.88
2022-10-10T23:28:19.131Z,102448.03
2022-10-10T23:30:21.070Z,102448.03
2022-10-10T23:32:23.581Z,102441.91
2022-10-10T23:34:25.291Z,102445.38
2022-10-10T23:36:26.944Z,102449.72
2022-10-10T23:38:29.259Z,102453.03
2022-10-10T23:40:32.817Z,102451.81
2022-10-10T23:42:34.511Z,102451.00
2022-10-10T23:44:36.230Z,102446.53
2022-10-10T23:46:37.862Z,102448.19
2022-10-10T23:48:39.632Z,102457.59
2022-10-10T23:50:41.400Z,102461.16
2022-10-10T23:52:43.163Z,102463.78
2022-10-10T23:54:44.806Z,102450.00
2022-10-10T23:56:46.427Z,102452.66